Time;durP1;ratioP1;P1;durP2;ratioP2;P2;SDS_P1;SDS_P2;PMS_P1;PMS_P2;Temp;Humidity;BMP_temperature;BMP_pressure;BME280_temperature;BME280_humidity;BME280_pressure;Samples;Min_cycle;Max_cycle;Signal;HPM_P1;HPM_P2
2022/08/20 00:00:54;;;;;;;30.88;12.32;;;;;;;23.62;35.08;100452.03;5090213;28;20266;-74
2022/08/20 00:03:26;;;;;;;17.23;13.27;;;;;;;23.64;35.23;100456.41;5090573;28;20039;-75
2022/08/20 00:06:05;;;;;;;18.13;12.43;;;;;;;23.59;35.48;100465.06;5090604;28;20032;-73
2022/08/20 00:08:31;;;;;;;20.30;14.82;;;;;;;23.56;35.27;100460.03;5089942;28;20030;-73
2022/08/20 00:10:58;;;;;;;28.75;15.30;;;;;;;23.54;35.17;100457.50;5090299;28;20036;-73
2022/08/20 00:13:27;;;;;;;20.27;12.35;;;;;;;23.56;35.51;100460.03;5089680;28;20142;-74
2022/08/20 00:15:53;;;;;;;21.33;13.68;;;;;;;23.56;35.33;100463.56;5090205;28;20032;-73
2022/08/20 00:18:19;;;;;;;20.05;13.60;;;;;;;23.53;35.68;100461.22;5089899;28;20035;-73
2022/08/20 00:20:48;;;;;;;21.77;14.40;;;;;;;23.56;35.45;100460.03;5090228;28;20028;-74
2022/08/20 00:23:15;;;;;;;22.70;14.98;;;;;;;23.55;35.63;100461.88;5090213;28;20020;-75
2022/08/20 00:25:42;;;;;;;19.77;13.70;;;;;;;23.54;36.08;100462.06;5090123;28;20133;-72
2022/08/20 00:28:08;;;;;;;23.70;13.63;;;;;;;23.53;36.06;100468.50;5090205;28;20020;-73
2022/08/20 00:30:35;;;;;;;24.33;13.45;;;;;;;23.50;36.27;100466.16;5089909;28;20016;-73
2022/08/20 00:33:05;;;;;;;20.30;14.98;;;;;;;23.49;36.36;100465.34;5090148;28;20020;-73
2022/08/20 00:35:35;;;;;;;19.65;13.95;;;;;;;23.50;36.02;100463.44;5089047;28;20148;-73
2022/08/20 00:38:00;;;;;;;26.83;14.43;;;;;;;23.52;36.50;100470.38;5090052;28;20025;-72
2022/08/20 00:40:37;;;;;;;23.20;14.00;;;;;;;23.48;36.54;100469.06;5089868;28;20091;-73
2022/08/20 00:43:07;;;;;;;23.70;13.88;;;;;;;23.44;36.62;100473.13;5089946;28;20024;-73
2022/08/20 00:45:34;;;;;;;24.02;15.55;;;;;;;23.43;36.82;100477.72;5089863;28;20024;-73
2022/08/20 00:48:01;;;;;;;20.15;15.60;;;;;;;23.44;36.52;100470.44;5089846;28;20162;-73
2022/08/20 00:50:33;;;;;;;21.48;14.00;;;;;;;23.45;36.81;100470.22;5089622;28;20074;-73
2022/08/20 00:53:01;;;;;;;20.25;13.45;;;;;;;23.44;36.79;100471.28;5089667;28;20031;-73
2022/08/20 00:55:28;;;;;;;29.23;15.13;;;;;;;23.40;36.68;100471.81;5089614;28;20024;-73
2022/08/20 00:57:58;;;;;;;21.67;13.27;;;;;;;23.40;36.83;100467.25;5088989;28;20087;-73
2022/08/20 01:00:28;;;;;;;20.05;13.77;;;;;;;23.41;36.69;100477.03;5088381;28;20028;-73
2022/08/20 01:02:55;;;;;;;23.17;13.43;;;;;;;23.42;36.97;100475.16;5089064;28;20023;-74
2022/08/20 01:05:22;;;;;;;20.20;14.65;;;;;;;23.42;36.84;100481.44;5088934;28;20032;-74
2022/08/20 01:07:52;;;;;;;22.67;13.70;;;;;;;23.42;37.10;100477.88;5088584;28;20087;-72
2022/08/20 01:10:26;;;;;;;24.90;14.80;;;;;;;23.40;37.40;100472.66;5089229;28;20074;-73
2022/08/20 01:12:53;;;;;;;20.27;13.65;;;;;;;23.39;36.97;100476.38;5088702;28;20148;-74
2022/08/20 01:15:22;;;;;;;21.58;13.95;;;;;;;23.38;36.87;100477.41;5088421;28;20036;-73
2022/08/20 01:17:53;;;;;;;18.77;12.77;;;;;;;23.29;37.34;100473.09;5088835;28;20249;-73
2022/08/20 01:20:28;;;;;;;22.00;12.93;;;;;;;23.26;37.15;100474.28;5088389;28;20018;-72
2022/08/20 01:23:31;;;;;;;18.55;12.65;;;;;;;23.27;37.31;100477.84;5088733;28;20028;-73
2022/08/20 01:26:21;;;;;;;20.83;13.48;;;;;;;23.24;37.74;100476.31;5088604;28;20099;-73
2022/08/20 01:28:53;;;;;;;17.60;12.80;;;;;;;23.21;37.62;100490.22;5088070;28;20225;-73
2022/08/20 01:31:25;;;;;;;18.45;12.18;;;;;;;23.23;37.53;100481.91;5088291;28;20017;-70
2022/08/20 01:33:53;;;;;;;21.13;13.25;;;;;;;23.23;37.43;100481.91;5088397;28;20044;-72
2022/08/20 01:36:24;;;;;;;20.30;12.23;;;;;;;23.21;37.47;100482.13;5087979;28;20241;-72
2022/08/20 01:38:49;;;;;;;15.20;11.98;;;;;;;23.20;37.60;100490.34;5088185;28;20028;-71
2022/08/20 01:41:21;;;;;;;16.65;12.25;;;;;;;23.19;37.43;100491.34;5088243;28;20028;-71
2022/08/20 01:43:56;;;;;;;18.20;11.75;;;;;;;23.16;37.51;100488.00;5088198;28;20025;-69
2022/08/20 01:46:37;;;;;;;22.10;12.07;;;;;;;23.15;37.53;100480.09;5088265;28;20020;-72
2022/08/20 01:49:25;;;;;;;26.38;12.40;;;;;;;23.11;37.46;100481.47;5075604;28;20024;-72
2022/08/20 01:51:54;;;;;;;15.77;10.63;;;;;;;23.04;37.68;100481.34;5087859;28;20037;-71
2022/08/20 01:54:21;;;;;;;16.60;11.25;;;;;;;23.01;37.83;100485.25;5088024;28;20024;-72
2022/08/20 01:57:03;;;;;;;19.17;10.75;;;;;;;23.03;37.76;100493.16;5088010;28;20032;-71
2022/08/20 01:59:29;;;;;;;20.67;11.13;;;;;;;23.02;37.87;100486.06;5087863;28;20141;-72
2022/08/20 02:01:55;;;;;;;16.95;9.82;;;;;;;23.03;37.88;100487.75;5087790;28;20083;-72
2022/08/20 02:04:21;;;;;;;16.40;10.32;;;;;;;23.04;37.88;100491.31;5087582;28;20087;-72
2022/08/20 02:06:51;;;;;;;14.25;9.32;;;;;;;23.00;38.03;100483.56;5086322;28;20087;-72
2022/08/20 02:09:18;;;;;;;16.73;9.23;;;;;;;22.96;37.98;100484.94;5087213;28;20470;-72
2022/08/20 02:11:45;;;;;;;15.38;10.00;;;;;;;22.91;38.09;100484.66;5087647;28;20126;-71
2022/08/20 02:14:11;;;;;;;17.65;9.50;;;;;;;22.92;37.92;100490.88;5086999;28;20073;-73
2022/08/20 02:16:39;;;;;;;15.73;9.25;;;;;;;22.92;37.80;100486.34;5087232;28;20098;-72
2022/08/20 02:19:30;;;;;;;16.20;9.45;;;;;;;22.89;37.99;100491.22;5087573;28;20032;-72
2022/08/20 02:21:59;;;;;;;15.40;9.02;;;;;;;22.84;38.02;100498.03;5068011;28;20056;-71
2022/08/20 02:24:24;;;;;;;11.18;7.88;;;;;;;22.86;38.08;100487.91;5076244;28;20016;-72
2022/08/20 02:26:51;;;;;;;11.23;7.32;;;;;;;22.86;37.97;100489.75;5087565;28;20069;-71
2022/08/20 02:29:17;;;;;;;11.82;8.63;;;;;;;22.91;37.93;100498.16;5087058;28;20032;-70
2022/08/20 02:31:44;;;;;;;13.23;7.80;;;;;;;22.97;37.78;100496.59;5087649;28;20024;-71
2022/08/20 02:34:12;;;;;;;21.42;7.75;;;;;;;22.97;37.70;100494.72;5087393;28;20225;-71
2022/08/20 02:36:39;;;;;;;10.30;7.40;;;;;;;22.97;37.65;100493.88;5087023;28;20060;-71
2022/08/20 02:39:09;;;;;;;14.15;7.68;;;;;;;22.96;37.49;100494.91;5087602;28;20020;-70
2022/08/20 02:41:35;;;;;;;12.18;7.30;;;;;;;22.86;37.92;100487.91;5087310;28;20027;-72
2022/08/20 02:44:03;;;;;;;10.73;7.75;;;;;;;22.87;37.80;100499.50;5086859;28;20020;-72
2022/08/20 02:46:29;;;;;;;10.68;6.32;;;;;;;22.84;37.93;100507.97;5087108;28;20023;-71
2022/08/20 02:48:55;;;;;;;15.15;6.85;;;;;;;22.81;37.83;100503.78;5086997;28;20095;-71
2022/08/20 02:51:20;;;;;;;12.63;6.35;;;;;;;22.76;38.13;100500.75;5086866;28;20032;-71
2022/08/20 02:53:46;;;;;;;8.55;6.13;;;;;;;22.78;38.29;100500.59;5086821;28;20043;-72
2022/08/20 02:56:12;;;;;;;10.18;6.30;;;;;;;22.77;37.95;100496.22;5087090;28;20016;-71
2022/08/20 02:58:38;;;;;;;9.88;6.15;;;;;;;22.75;38.13;100509.03;5086666;28;20024;-71
2022/08/20 03:01:06;;;;;;;14.38;7.35;;;;;;;22.76;37.92;100502.63;5087287;28;20017;-72
2022/08/20 03:03:32;;;;;;;17.83;8.43;;;;;;;22.71;37.85;100522.03;5086930;28;20020;-72
2022/08/20 03:05:58;;;;;;;17.83;10.85;;;;;;;22.69;38.05;100515.97;5086817;28;20130;-72
2022/08/20 03:08:26;;;;;;;14.00;10.10;;;;;;;22.63;37.86;100508.59;5085521;28;20058;-69
2022/08/20 03:10:52;;;;;;;17.77;12.32;;;;;;;22.59;38.00;100510.81;5085744;28;20027;-72
2022/08/20 03:13:18;;;;;;;19.65;13.85;;;;;;;22.59;38.20;100512.66;5087051;28;20075;-71
2022/08/20 03:15:48;;;;;;;29.83;18.02;;;;;;;22.61;38.09;100511.47;5086910;28;20204;-70
2022/08/20 03:18:15;;;;;;;21.73;13.75;;;;;;;22.53;37.99;100509.66;5086397;28;20354;-70
2022/08/20 03:20:41;;;;;;;28.92;19.48;;;;;;;22.50;38.05;100512.69;5086517;28;20024;-70
2022/08/20 03:23:07;;;;;;;24.58;16.17;;;;;;;22.50;38.19;100507.31;5086820;28;20088;-71
2022/08/20 03:25:32;;;;;;;26.77;19.52;;;;;;;22.51;38.21;100517.06;5090513;28;20150;-71
2022/08/20 03:27:58;;;;;;;29.98;20.17;;;;;;;22.50;38.27;100518.09;5090683;28;20030;-70
2022/08/20 03:30:26;;;;;;;31.63;24.15;;;;;;;22.55;38.11;100515.72;5091056;28;20040;-71
2022/08/20 03:32:53;;;;;;;32.15;22.38;;;;;;;22.57;38.15;100515.53;5091208;28;20100;-70
2022/08/20 03:35:20;;;;;;;40.17;26.33;;;;;;;22.57;38.15;100514.69;5091047;28;20078;-71
2022/08/20 03:37:47;;;;;;;39.58;25.48;;;;;;;22.52;38.35;100507.13;5090738;28;20044;-69
2022/08/20 03:40:17;;;;;;;38.17;24.50;;;;;;;22.49;38.37;100520.97;5090075;28;20059;-71
2022/08/20 03:42:43;;;;;;;34.22;23.80;;;;;;;22.49;38.39;100519.09;5090424;28;20016;-70
2022/08/20 03:45:11;;;;;;;37.97;25.23;;;;;;;22.51;38.54;100525.16;5090405;28;20042;-71
2022/08/20 03:47:37;;;;;;;36.95;25.13;;;;;;;22.51;38.38;100517.06;5090029;28;20028;-71
2022/08/20 03:50:05;;;;;;;34.17;23.83;;;;;;;22.53;38.38;100515.03;5090298;28;20257;-72
2022/08/20 03:52:30;;;;;;;34.92;23.23;;;;;;;22.52;38.45;100524.16;5089914;28;20087;-69
2022/08/20 03:54:56;;;;;;;41.80;24.30;;;;;;;22.52;38.51;100524.16;5090095;28;20039;-72
2022/08/20 03:57:22;;;;;;;31.73;22.80;;;;;;;22.56;38.53;100527.31;5090169;28;20028;-70
2022/08/20 03:59:48;;;;;;;38.60;21.13;;;;;;;22.55;38.38;100534.59;5090189;28;20092;-71
2022/08/20 04:02:13;;;;;;;31.85;20.45;;;;;;;22.51;38.57;100522.47;5090221;28;20028;-72
2022/08/20 04:04:40;;;;;;;30.27;19.17;;;;;;;22.54;38.36;100523.97;5090125;28;20069;-70
2022/08/20 04:07:15;;;;;;;34.70;17.17;;;;;;;22.58;38.35;100529.84;5090042;28;20180;-70
2022/08/20 04:09:42;;;;;;;25.70;17.73;;;;;;;22.59;38.38;100528.81;5089924;28;20025;-72
2022/08/20 04:12:11;;;;;;;29.80;17.35;;;;;;;22.59;38.47;100523.44;5089984;28;20019;-71
2022/08/20 04:14:38;;;;;;;27.35;17.90;;;;;;;22.56;38.24;100521.94;5090040;28;20031;-70
2022/08/20 04:17:09;;;;;;;25.85;16.98;;;;;;;22.50;38.57;100528.03;5090026;28;20035;-70
2022/08/20 04:19:35;;;;;;;27.13;17.92;;;;;;;22.48;38.66;100530.06;5089839;28;20284;-70
2022/08/20 04:22:01;;;;;;;28.92;17.48;;;;;;;22.48;38.52;100528.19;5089879;28;20030;-70
2022/08/20 04:24:27;;;;;;;30.88;17.00;;;;;;;22.48;38.54;100524.69;5089403;28;20024;-69
2022/08/20 04:26:53;;;;;;;21.95;16.65;;;;;;;22.44;38.61;100529.56;5089681;28;20032;-70
2022/08/20 04:29:20;;;;;;;26.13;16.30;;;;;;;22.42;38.85;100520.84;5089823;28;20024;-72
2022/08/20 04:31:46;;;;;;;33.05;17.95;;;;;;;22.43;38.81;100518.97;5089725;28;20122;-72
2022/08/20 04:34:11;;;;;;;26.75;17.38;;;;;;;22.42;38.79;100517.28;5090222;28;20019;-70
2022/08/20 04:36:37;;;;;;;25.20;18.20;;;;;;;22.45;38.70;100517.75;5089119;28;20223;-71
2022/08/20 04:39:02;;;;;;;25.70;16.80;;;;;;;22.48;38.71;100522.81;5089902;28;20024;-71
2022/08/20 04:41:28;;;;;;;27.00;15.35;;;;;;;22.54;38.54;100515.88;5089465;28;20028;-71
2022/08/20 04:43:55;;;;;;;30.77;16.30;;;;;;;22.62;38.44;100517.69;5089406;28;20028;-71
2022/08/20 04:46:24;;;;;;;26.98;16.92;;;;;;;22.69;38.35;100519.50;5090138;28;20095;-71
2022/08/20 04:48:49;;;;;;;23.75;14.73;;;;;;;22.77;38.06;100515.94;5089307;28;20075;-69
2022/08/20 04:51:15;;;;;;;29.17;16.35;;;;;;;22.79;38.01;100505.81;5088914;28;20030;-71
2022/08/20 04:53:41;;;;;;;23.52;15.40;;;;;;;22.82;37.90;100527.03;5089358;28;20060;-70
2022/08/20 04:56:07;;;;;;;25.55;14.73;;;;;;;22.83;37.79;100534.13;5089619;28;20118;-71
2022/08/20 04:58:37;;;;;;;24.83;14.15;;;;;;;22.88;37.94;100520.09;5089636;28;20025;-71
2022/08/20 05:01:05;;;;;;;28.95;13.70;;;;;;;22.93;37.55;100516.84;5089231;28;20023;-72
2022/08/20 05:03:32;;;;;;;19.10;14.00;;;;;;;22.94;37.46;100511.25;5089020;28;20021;-71
2022/08/20 05:05:58;;;;;;;20.30;13.02;;;;;;;22.94;37.28;100515.84;5088966;28;20051;-72
2022/08/20 05:08:24;;;;;;;22.55;13.27;;;;;;;22.94;37.96;100519.34;5089134;28;20020;-70
2022/08/20 05:10:51;;;;;;;23.92;12.57;;;;;;;22.99;37.76;100525.06;5088344;28;20024;-71
2022/08/20 05:13:18;;;;;;;20.65;12.48;;;;;;;23.05;37.41;100526.22;5089396;28;20203;-71
2022/08/20 05:15:47;;;;;;;20.60;12.55;;;;;;;23.03;37.42;100520.16;5089290;28;20063;-73
2022/08/20 05:18:15;;;;;;;22.98;12.52;;;;;;;22.96;37.51;100520.03;5089277;28;20235;-72
2022/08/20 05:20:41;;;;;;;20.55;12.85;;;;;;;22.92;37.46;100524.13;5089041;28;20035;-71
2022/08/20 05:23:10;;;;;;;23.52;12.40;;;;;;;22.91;37.39;100526.97;5089175;28;20027;-71
2022/08/20 05:25:37;;;;;;;25.05;11.88;;;;;;;22.86;37.57;100531.06;5089087;28;20080;-72
2022/08/20 05:28:08;;;;;;;19.48;11.48;;;;;;;22.83;37.61;100538.66;5089001;28;20016;-72
2022/08/20 05:30:40;;;;;;;21.42;12.02;;;;;;;22.86;37.33;100525.69;5088767;28;20218;-72
2022/08/20 05:33:07;;;;;;;20.15;12.20;;;;;;;22.88;37.30;100532.72;5088860;28;20252;-72
2022/08/20 05:35:37;;;;;;;22.15;10.70;;;;;;;22.90;37.33;100528.00;5088887;28;20020;-70
2022/08/20 05:38:04;;;;;;;19.02;11.13;;;;;;;22.93;37.27;100531.19;5088889;28;20087;-71
2022/08/20 05:40:29;;;;;;;19.48;12.02;;;;;;;22.93;36.93;100536.59;5088715;28;20020;-72
2022/08/20 05:42:55;;;;;;;20.40;11.10;;;;;;;22.92;36.67;100537.63;5088757;28;20082;-70
2022/08/20 05:45:21;;;;;;;18.27;11.95;;;;;;;22.88;36.86;100541.69;5087596;28;20024;-70
2022/08/20 05:47:47;;;;;;;20.80;11.50;;;;;;;22.84;36.95;100552.00;5088634;28;20099;-72
2022/08/20 05:50:14;;;;;;;19.70;11.57;;;;;;;22.88;36.78;100551.63;5087760;28;20079;-72
2022/08/20 05:52:40;;;;;;;20.08;10.60;;;;;;;22.87;36.85;100548.09;5088462;28;20035;-71
2022/08/20 05:55:08;;;;;;;18.15;10.55;;;;;;;22.83;36.93;100555.69;5088419;28;20056;-71
2022/08/20 05:57:35;;;;;;;21.88;11.60;;;;;;;22.80;36.96;100552.50;5088525;28;20024;-72
2022/08/20 06:00:01;;;;;;;18.80;11.90;;;;;;;22.79;36.98;100551.66;5087796;28;20051;-71
2022/08/20 06:05:11;;;;;;;19.40;11.20;;;;;;;22.71;37.15;100557.94;5087724;28;20073;-70
2022/08/20 06:07:37;;;;;;;20.23;10.52;;;;;;;22.71;37.05;100554.41;5088232;28;20028;-70
2022/08/20 06:10:04;;;;;;;18.05;10.35;;;;;;;22.75;37.04;100549.50;5087993;28;20025;-71
2022/08/20 06:12:29;;;;;;;18.77;9.57;;;;;;;22.74;37.27;100550.53;5088019;28;20085;-72
2022/08/20 06:14:55;;;;;;;14.25;9.57;;;;;;;22.71;37.20;100544.47;5088125;28;20032;-71
2022/08/20 06:17:21;;;;;;;18.13;9.32;;;;;;;22.67;37.16;100539.59;5088013;28;20035;-72
2022/08/20 06:19:47;;;;;;;20.42;9.13;;;;;;;22.64;37.10;100538.09;5088265;28;20027;-71
2022/08/20 06:22:14;;;;;;;19.88;9.02;;;;;;;22.58;37.27;100533.41;5087970;28;20016;-72
2022/08/20 06:24:39;;;;;;;16.10;8.73;;;;;;;22.58;37.38;100540.63;5087923;28;20074;-72
2022/08/20 06:27:05;;;;;;;12.50;7.72;;;;;;;22.63;37.18;100539.13;5087935;28;20095;-72
2022/08/20 06:29:34;;;;;;;15.55;7.70;;;;;;;22.66;37.09;100551.41;5087745;28;20083;-72
2022/08/20 06:32:00;;;;;;;19.15;8.25;;;;;;;22.72;36.79;100539.88;5087757;28;20186;-72
2022/08/20 06:34:27;;;;;;;16.05;7.95;;;;;;;22.70;37.04;100544.66;5087285;28;20031;-71
2022/08/20 06:36:56;;;;;;;14.18;7.50;;;;;;;22.68;36.97;100539.41;5087866;28;20078;-73
2022/08/20 06:39:23;;;;;;;11.93;7.10;;;;;;;22.69;36.90;100545.66;5087737;28;20144;-72
2022/08/20 06:41:50;;;;;;;21.23;7.55;;;;;;;22.74;36.74;100545.13;5087720;28;20096;-71
2022/08/20 06:44:16;;;;;;;14.52;7.03;;;;;;;22.78;36.54;100544.59;5087670;28;20030;-74
2022/08/20 06:46:42;;;;;;;13.50;6.72;;;;;;;22.79;36.34;100546.28;5087671;28;20217;-76
2022/08/20 06:49:08;;;;;;;16.58;6.88;;;;;;;22.79;36.19;100531.97;5087540;28;20028;-74
2022/08/20 06:51:36;;;;;;;14.70;6.65;;;;;;;22.76;36.04;100535.81;5087404;28;20067;-72
2022/08/20 06:54:02;;;;;;;15.38;6.05;;;;;;;22.79;35.90;100530.09;5087530;28;20092;-72
2022/08/20 06:56:28;;;;;;;11.10;6.18;;;;;;;22.85;36.18;100518.59;5087542;28;20035;-72
2022/08/20 06:58:53;;;;;;;12.32;6.35;;;;;;;22.94;35.87;100521.22;5086921;28;20021;-72
2022/08/20 07:01:20;;;;;;;13.32;5.38;;;;;;;22.98;35.70;100515.28;5086975;28;20030;-74
2022/08/20 07:03:47;;;;;;;11.60;5.38;;;;;;;23.03;35.66;100503.94;5086981;28;20052;-73
2022/08/20 07:06:14;;;;;;;10.10;5.53;;;;;;;23.05;35.54;100509.19;5087439;28;20134;-73
2022/08/20 07:08:41;;;;;;;11.07;5.82;;;;;;;23.06;35.70;100506.31;5087450;28;20299;-74
2022/08/20 07:11:06;;;;;;;16.80;5.80;;;;;;;23.06;35.48;100500.06;5087052;28;20237;-71
2022/08/20 07:13:32;;;;;;;16.63;5.65;;;;;;;23.06;35.58;100506.31;5086742;28;20035;-71
2022/08/20 07:15:57;;;;;;;12.63;5.95;;;;;;;22.98;35.37;100493.69;5087180;28;20028;-73
2022/08/20 07:18:23;;;;;;;11.90;5.45;;;;;;;22.91;35.41;100505.38;5087378;28;20024;-72
2022/08/20 07:20:49;;;;;;;11.15;5.18;;;;;;;22.86;35.46;100498.69;5087543;28;20027;-73
2022/08/20 07:23:14;;;;;;;13.55;5.68;;;;;;;22.78;35.06;100504.13;5086900;28;20059;-74
2022/08/20 07:25:42;;;;;;;12.25;4.80;;;;;;;22.58;35.28;100505.56;5087300;28;20062;-73
2022/08/20 07:28:14;;;;;;;14.15;4.72;;;;;;;22.52;35.38;100499.03;5086832;28;20008;-75
2022/08/20 07:33:25;;;;;;;13.25;5.05;;;;;;;22.55;35.47;100499.53;5087063;28;20186;-75
2022/08/20 07:35:51;;;;;;;15.38;4.72;;;;;;;22.58;35.20;100502.88;5087199;28;20077;-74
2022/08/20 07:38:25;;;;;;;13.13;4.90;;;;;;;22.54;35.47;100491.59;5087182;28;20168;-74
2022/08/20 07:40:56;;;;;;;13.90;5.43;;;;;;;22.50;35.48;100493.00;5087144;28;20020;-74
2022/08/20 07:43:22;;;;;;;11.45;4.78;;;;;;;22.51;35.39;100490.09;5087034;28;20036;-74
2022/08/20 07:45:56;;;;;;;18.67;4.53;;;;;;;22.53;35.08;100496.16;5086731;28;20032;-73
2022/08/20 07:48:27;;;;;;;8.40;3.95;;;;;;;22.53;35.16;100498.88;5086857;28;20024;-74
2022/08/20 07:50:54;;;;;;;12.85;4.25;;;;;;;22.58;35.35;100502.88;5086856;28;20216;-73
2022/08/20 07:53:20;;;;;;;14.07;4.93;;;;;;;22.69;35.16;100506.03;5086994;28;20187;-73
2022/08/20 07:55:46;;;;;;;7.90;4.28;;;;;;;22.74;35.48;100502.78;5086589;28;20036;-72
2022/08/20 07:58:16;;;;;;;12.73;4.32;;;;;;;22.79;35.34;100500.41;5086744;28;20178;-73
2022/08/20 08:00:41;;;;;;;11.20;4.78;;;;;;;22.79;35.00;100500.41;5086849;28;20218;-72
2022/08/20 08:03:08;;;;;;;10.18;4.72;;;;;;;22.66;35.17;100510.94;5086956;28;20024;-72
2022/08/20 08:05:37;;;;;;;7.63;4.18;;;;;;;22.56;35.11;100508.44;5086841;28;20309;-73
2022/08/20 08:08:05;;;;;;;12.73;4.43;;;;;;;22.47;35.11;100509.50;5086959;28;20093;-73
2022/08/20 08:10:31;;;;;;;6.88;4.55;;;;;;;22.41;34.98;100511.03;5087061;28;20093;-72
2022/08/20 08:13:01;;;;;;;13.50;4.55;;;;;;;22.42;35.02;100512.75;5090444;28;20234;-72
2022/08/20 08:15:31;;;;;;;13.43;4.40;;;;;;;22.44;35.07;100518.78;5090341;28;20048;-72
2022/08/20 08:18:06;;;;;;;8.38;3.75;;;;;;;22.46;35.32;100524.84;5090458;28;20135;-72
2022/08/20 08:20:37;;;;;;;13.63;4.65;;;;;;;22.54;35.33;100527.50;5090160;28;20020;-71
2022/08/20 08:23:03;;;;;;;13.73;4.20;;;;;;;22.54;35.22;100522.13;5090390;28;20020;-72
2022/08/20 08:25:31;;;;;;;12.57;3.92;;;;;;;22.43;35.32;100514.38;5090081;28;20035;-72
2022/08/20 08:27:59;;;;;;;14.60;4.05;;;;;;;22.49;35.38;100524.50;5090166;28;20059;-73
2022/08/20 08:30:25;;;;;;;14.38;4.90;;;;;;;22.55;35.46;100531.03;5089974;28;20023;-72
2022/08/20 08:35:39;;;;;;;10.45;4.55;;;;;;;22.71;35.30;100524.75;5090043;28;20134;-72
2022/08/20 08:38:05;;;;;;;11.27;4.50;;;;;;;22.75;35.29;100530.63;5089965;28;20038;-73
2022/08/20 08:40:31;;;;;;;12.77;5.53;;;;;;;22.78;35.68;100527.56;5088732;28;20088;-72
2022/08/20 08:43:01;;;;;;;14.15;4.82;;;;;;;22.76;35.28;100526.91;5089892;28;20017;-73
2022/08/20 08:45:41;;;;;;;14.60;5.00;;;;;;;22.79;35.70;100531.97;5069773;28;20173;-73
2022/08/20 08:48:06;;;;;;;12.68;4.50;;;;;;;22.82;35.57;100535.13;5069763;28;20035;-73
2022/08/20 08:50:33;;;;;;;11.45;5.38;;;;;;;22.84;35.36;100546.59;5086814;28;20036;-71
2022/08/20 08:53:00;;;;;;;10.98;6.35;;;;;;;22.84;35.41;100530.41;5089727;28;20047;-72
2022/08/20 08:55:29;;;;;;;16.25;6.18;;;;;;;22.81;35.44;100540.69;5089365;28;20028;-72
2022/08/20 08:57:58;;;;;;;10.43;5.82;;;;;;;22.77;35.67;100528.59;5089549;28;20138;-72
2022/08/20 09:00:27;;;;;;;13.05;5.05;;;;;;;22.81;35.42;100541.53;5089111;28;20099;-73
2022/08/20 09:02:58;;;;;;;12.05;4.88;;;;;;;22.83;35.51;100541.34;5089527;28;20271;-72
2022/08/20 09:05:30;;;;;;;19.58;6.13;;;;;;;22.84;35.61;100538.50;5089202;28;20016;-72
2022/08/20 09:07:57;;;;;;;19.35;6.53;;;;;;;22.86;35.52;100544.56;5089369;28;20040;-72
2022/08/20 09:10:23;;;;;;;9.75;5.35;;;;;;;22.89;35.88;100543.34;5089251;28;20055;-73
2022/08/20 09:12:48;;;;;;;11.10;5.72;;;;;;;22.93;35.79;100542.00;5089612;28;20121;-72
2022/08/20 09:15:15;;;;;;;13.75;6.97;;;;;;;22.95;35.69;100545.34;5088762;28;20222;-72
2022/08/20 09:17:41;;;;;;;17.05;6.68;;;;;;;22.97;35.73;100545.16;5089174;28;20141;-72
2022/08/20 09:20:08;;;;;;;16.60;7.55;;;;;;;22.97;36.14;100543.28;5088564;28;20024;-73
2022/08/20 09:22:33;;;;;;;13.65;6.57;;;;;;;22.98;35.91;100544.16;5088419;28;20332;-73
2022/08/20 09:25:00;;;;;;;13.63;6.40;;;;;;;22.98;36.06;100544.97;5088577;28;20024;-72
2022/08/20 09:27:25;;;;;;;14.63;7.55;;;;;;;22.98;36.49;100547.69;5088677;28;20034;-72
2022/08/20 09:29:52;;;;;;;19.10;7.93;;;;;;;23.00;36.49;100542.13;5088335;28;20024;-72
2022/08/20 09:32:22;;;;;;;11.43;7.00;;;;;;;23.01;36.51;100552.72;5088797;28;20036;-72
2022/08/20 09:34:55;;;;;;;14.82;7.57;;;;;;;22.99;36.37;100533.16;5085541;28;20025;-72
2022/08/20 09:37:23;;;;;;;16.95;7.78;;;;;;;22.99;36.55;100535.03;5088871;28;20068;-72
2022/08/20 09:39:48;;;;;;;15.55;7.93;;;;;;;22.95;36.72;100536.41;5088790;28;20024;-73
2022/08/20 09:42:20;;;;;;;18.73;8.68;;;;;;;22.96;36.70;100536.22;5088297;28;20040;-72
2022/08/20 09:44:46;;;;;;;13.25;8.05;;;;;;;22.91;36.81;100540.47;5088710;28;20040;-72
2022/08/20 09:47:11;;;;;;;16.83;8.85;;;;;;;22.88;37.06;100543.50;5088579;28;20088;-74
2022/08/20 09:49:38;;;;;;;12.68;8.02;;;;;;;22.89;37.19;100547.91;5086769;28;20217;-73
2022/08/20 09:52:07;;;;;;;16.55;9.18;;;;;;;22.88;37.24;100544.38;5087214;28;20287;-68
2022/08/20 09:54:34;;;;;;;18.73;10.85;;;;;;;22.85;37.36;100545.59;5086761;28;20029;-72
2022/08/20 09:57:02;;;;;;;17.83;10.35;;;;;;;22.80;37.74;100534.47;5087859;28;20024;-72
2022/08/20 09:59:29;;;;;;;24.15;11.82;;;;;;;22.74;37.90;100534.34;5087074;28;20222;-72
2022/08/20 10:01:55;;;;;;;20.60;11.85;;;;;;;22.70;38.16;100533.84;5087519;28;20115;-72
2022/08/20 10:04:21;;;;;;;23.33;11.35;;;;;;;22.64;38.65;100518.34;5086844;28;20082;-71
2022/08/20 10:06:46;;;;;;;21.42;11.25;;;;;;;22.62;39.00;100506.91;5085896;28;20025;-72
2022/08/20 10:09:12;;;;;;;23.65;11.57;;;;;;;22.55;39.27;100495.97;5086446;28;20048;-71
2022/08/20 10:11:37;;;;;;;19.80;10.93;;;;;;;22.47;39.11;100496.84;5087123;28;20062;-71
2022/08/20 10:14:03;;;;;;;25.73;11.40;;;;;;;22.36;39.71;100495.34;5086666;28;20028;-72
2022/08/20 10:16:29;;;;;;;20.90;11.95;;;;;;;22.25;39.88;100488.50;5086649;28;20227;-69
2022/08/20 10:18:55;;;;;;;22.13;11.15;;;;;;;22.24;39.72;100499.44;5086437;28;20149;-71
2022/08/20 10:21:20;;;;;;;27.80;11.40;;;;;;;22.34;39.81;100513.59;5085449;28;20226;-68
2022/08/20 10:23:46;;;;;;;19.92;11.68;;;;;;;22.41;39.89;100516.41;5086133;28;20028;-70
2022/08/20 10:26:12;;;;;;;16.63;10.75;;;;;;;22.47;39.72;100515.72;5087067;28;20024;-72
2022/08/20 10:28:38;;;;;;;21.92;11.85;;;;;;;22.55;39.32;100515.72;5087303;28;20222;-71
2022/08/20 10:31:08;;;;;;;19.52;11.45;;;;;;;22.62;39.53;100528.47;5086323;28;20048;-71
2022/08/20 10:33:34;;;;;;;16.13;10.60;;;;;;;22.61;39.34;100532.19;5087124;28;20230;-72
2022/08/20 10:36:12;;;;;;;17.95;11.25;;;;;;;22.59;39.11;100518.03;5087874;28;20086;-71
2022/08/20 10:38:38;;;;;;;22.90;10.18;;;;;;;22.58;39.01;100519.03;5087015;28;20040;-71
2022/08/20 10:41:04;;;;;;;15.32;9.90;;;;;;;22.63;38.97;100519.38;5087593;28;20111;-71
2022/08/20 10:43:29;;;;;;;17.25;10.20;;;;;;;22.62;38.84;100526.63;5087131;28;20115;-71
2022/08/20 10:45:55;;;;;;;15.07;9.15;;;;;;;22.62;38.94;100517.69;5087301;28;20040;-71
2022/08/20 10:48:21;;;;;;;18.45;9.90;;;;;;;22.57;38.92;100514.69;5087659;28;20032;-71
2022/08/20 10:50:48;;;;;;;15.20;9.65;;;;;;;22.55;38.91;100513.03;5082089;28;20036;-71
2022/08/20 10:53:13;;;;;;;16.38;8.48;;;;;;;22.51;38.97;100517.06;5087420;28;20039;-72
2022/08/20 10:55:39;;;;;;;12.15;8.90;;;;;;;22.52;38.93;100518.75;5086862;28;20209;-71
2022/08/20 10:58:05;;;;;;;12.98;8.52;;;;;;;22.57;38.85;100514.69;5087539;28;20024;-72
2022/08/20 11:00:31;;;;;;;12.07;8.48;;;;;;;22.58;38.99;100514.50;5087439;28;20035;-71
2022/08/20 11:02:56;;;;;;;12.77;9.07;;;;;;;22.54;38.81;100516.72;5087555;28;20020;-71
2022/08/20 11:05:22;;;;;;;12.13;8.02;;;;;;;22.59;38.78;100512.66;5087339;28;20118;-70
2022/08/20 11:07:48;;;;;;;13.05;8.20;;;;;;;22.60;38.76;100514.31;5086545;28;20078;-70
2022/08/20 11:10:14;;;;;;;11.52;7.75;;;;;;;22.60;38.71;100511.63;5086512;28;20115;-70
2022/08/20 11:12:40;;;;;;;18.50;8.18;;;;;;;22.61;38.48;100513.31;5086361;28;20053;-71
2022/08/20 11:15:06;;;;;;;11.82;7.25;;;;;;;22.64;38.27;100505.72;5086377;28;20094;-72
2022/08/20 11:17:38;;;;;;;21.48;7.72;;;;;;;22.67;38.36;100494.56;5087255;28;20016;-71
2022/08/20 11:20:06;;;;;;;16.35;8.00;;;;;;;22.64;38.59;100494.94;5087212;28;20126;-71
2022/08/20 11:22:31;;;;;;;14.57;6.97;;;;;;;22.64;38.38;100491.38;5087592;28;20030;-71
2022/08/20 11:24:57;;;;;;;12.70;6.75;;;;;;;22.59;38.61;100493.75;5086257;28;20021;-71